Time;durP1;ratioP1;P1;durP2;ratioP2;P2;SDS_P1;SDS_P2;PMS_P1;PMS_P2;Temp;Humidity;BMP_temperature;BMP_pressure;BME280_temperature;BME280_humidity;BME280_pressure;Samples;Min_cycle;Max_cycle;Signal;HPM_P1;HPM_P2
2021/05/16 00:01:10;;;;;;;7.07;2.85;;;10.30;93.60;;;;;;4981689;28;20497;-80
2021/05/16 00:03:36;;;;;;;4.15;1.05;;;10.30;93.50;;;;;;4985016;28;20038;-79
2021/05/16 00:06:02;;;;;;;8.38;1.65;;;10.30;93.50;;;;;;4969027;28;20102;-79
2021/05/16 00:08:27;;;;;;;10.50;1.98;;;10.30;93.60;;;;;;4984059;28;20157;-79
2021/05/16 00:10:53;;;;;;;8.50;1.60;;;10.30;93.50;;;;;;4981410;28;20117;-79
2021/05/16 00:13:19;;;;;;;5.30;0.80;;;10.30;93.80;;;;;;5001556;28;20105;-79
2021/05/16 00:15:44;;;;;;;6.45;2.15;;;10.30;93.70;;;;;;4982171;28;20034;-79
2021/05/16 00:18:10;;;;;;;4.65;1.23;;;10.30;93.60;;;;;;4998499;28;20029;-79
2021/05/16 00:20:35;;;;;;;6.05;1.52;;;10.30;93.70;;;;;;4966862;28;20058;-78
2021/05/16 00:23:01;;;;;;;7.40;1.42;;;10.30;93.70;;;;;;4981605;28;20441;-79
2021/05/16 00:25:27;;;;;;;6.38;1.60;;;10.40;93.60;;;;;;4997657;28;20109;-79
2021/05/16 00:27:52;;;;;;;8.93;1.48;;;10.40;93.60;;;;;;4999247;28;20037;-79
2021/05/16 00:30:19;;;;;;;8.52;1.67;;;10.40;93.80;;;;;;5001087;28;20038;-79
2021/05/16 00:32:45;;;;;;;7.13;1.33;;;10.40;93.80;;;;;;4995850;28;20032;-79
2021/05/16 00:35:12;;;;;;;3.92;1.30;;;10.40;93.80;;;;;;4994641;28;20026;-79
2021/05/16 00:37:38;;;;;;;1.65;0.80;;;10.40;93.70;;;;;;4980200;28;20030;-79
2021/05/16 00:40:05;;;;;;;7.32;1.80;;;10.40;93.80;;;;;;4964071;28;20041;-79
2021/05/16 00:42:30;;;;;;;9.35;2.75;;;10.40;93.80;;;;;;4982467;28;20490;-79
2021/05/16 00:45:07;;;;;;;6.05;1.67;;;10.40;93.80;;;;;;4983174;28;20117;-79
2021/05/16 00:47:33;;;;;;;4.40;1.33;;;10.50;93.60;;;;;;4979911;28;20492;-79
2021/05/16 00:49:59;;;;;;;9.18;2.05;;;10.40;93.70;;;;;;4982644;28;20030;-79
2021/05/16 00:52:25;;;;;;;6.75;1.65;;;10.40;93.60;;;;;;4996782;28;20117;-79
2021/05/16 00:54:54;;;;;;;6.10;1.58;;;10.40;93.60;;;;;;4993093;28;20117;-79
2021/05/16 00:57:19;;;;;;;3.97;0.98;;;10.40;93.60;;;;;;4982642;28;20022;-79
2021/05/16 00:59:45;;;;;;;5.00;1.23;;;10.40;93.80;;;;;;4997456;28;20547;-79
2021/05/16 01:02:11;;;;;;;5.55;2.17;;;10.40;93.70;;;;;;4977788;28;20080;-77
2021/05/16 01:04:37;;;;;;;7.78;1.60;;;10.40;93.60;;;;;;4979146;28;20035;-78
2021/05/16 01:07:03;;;;;;;9.35;1.67;;;10.30;93.70;;;;;;4984557;28;20045;-78
2021/05/16 01:09:28;;;;;;;5.78;1.42;;;10.30;93.60;;;;;;4973521;28;20023;-78
2021/05/16 01:11:54;;;;;;;9.52;1.33;;;10.30;93.60;;;;;;4997641;28;20056;-78
2021/05/16 01:14:31;;;;;;;8.65;1.85;;;10.30;93.70;;;;;;4972092;28;20031;-79
2021/05/16 01:16:57;;;;;;;3.03;1.38;;;10.30;93.60;;;;;;4971273;28;20093;-78
2021/05/16 01:19:22;;;;;;;15.27;2.80;;;10.30;93.60;;;;;;4983872;28;20034;-78
2021/05/16 01:21:49;;;;;;;4.68;1.17;;;10.40;93.60;;;;;;4980342;28;20118;-78
2021/05/16 01:24:16;;;;;;;12.35;2.00;;;10.30;93.70;;;;;;4983706;28;20038;-78
2021/05/16 01:26:43;;;;;;;15.57;1.58;;;10.30;93.60;;;;;;4989832;28;20405;-78
2021/05/16 01:29:09;;;;;;;6.75;0.88;;;10.30;93.60;;;;;;4958889;28;20049;-78
2021/05/16 01:31:35;;;;;;;9.00;1.92;;;10.30;93.50;;;;;;4996087;28;20057;-79
2021/05/16 01:34:00;;;;;;;3.67;1.35;;;10.40;93.50;;;;;;4971834;28;20038;-79
2021/05/16 01:36:26;;;;;;;6.22;1.25;;;10.30;93.60;;;;;;4966138;28;20038;-78
2021/05/16 01:38:51;;;;;;;10.25;1.73;;;10.30;94.00;;;;;;4997030;28;20148;-79
2021/05/16 01:41:17;;;;;;;1.55;0.73;;;10.30;93.60;;;;;;4983479;28;20525;-78
2021/05/16 01:43:42;;;;;;;9.25;2.17;;;10.40;93.60;;;;;;4965829;28;20071;-79
2021/05/16 01:46:08;;;;;;;8.45;1.60;;;10.30;93.60;;;;;;4979684;28;20756;-79
2021/05/16 01:48:33;;;;;;;3.25;1.23;;;10.30;93.60;;;;;;4963408;28;20046;-78
2021/05/16 01:50:59;;;;;;;4.22;1.45;;;10.40;93.50;;;;;;4964983;28;20066;-79
2021/05/16 01:53:25;;;;;;;8.07;1.77;;;10.40;93.60;;;;;;4984141;28;20126;-78
2021/05/16 01:55:50;;;;;;;8.15;1.75;;;10.40;93.50;;;;;;4978391;28;20027;-79
2021/05/16 01:58:15;;;;;;;6.32;2.10;;;10.40;93.50;;;;;;4983643;28;20027;-79
2021/05/16 02:00:42;;;;;;;8.98;1.40;;;10.40;93.50;;;;;;4965292;28;20442;-78
2021/05/16 02:03:07;;;;;;;14.63;1.88;;;10.30;93.50;;;;;;4961945;28;20111;-78
2021/05/16 02:05:33;;;;;;;11.68;1.55;;;10.30;93.50;;;;;;4969994;28;20030;-78
2021/05/16 02:07:59;;;;;;;14.20;1.92;;;10.40;93.40;;;;;;4966681;28;20026;-79
2021/05/16 02:10:24;;;;;;;6.15;1.90;;;10.40;93.30;;;;;;4999293;28;20038;-79
2021/05/16 02:12:50;;;;;;;18.35;2.80;;;10.40;93.30;;;;;;4993652;28;20088;-80
2021/05/16 02:15:16;;;;;;;6.70;1.45;;;10.30;93.40;;;;;;4997709;28;20467;-80
2021/05/16 02:17:42;;;;;;;9.93;1.98;;;10.30;93.40;;;;;;4965935;28;20034;-80
2021/05/16 02:20:25;;;;;;;10.88;1.98;;;10.20;93.50;;;;;;4967823;28;20477;-80
2021/05/16 02:22:51;;;;;;;8.77;3.92;;;10.20;93.60;;;;;;4984490;28;20037;-80
2021/05/16 02:25:17;;;;;;;9.80;1.98;;;10.20;93.50;;;;;;4984196;28;20493;-80
2021/05/16 02:27:43;;;;;;;6.47;1.50;;;10.20;93.50;;;;;;4978731;28;20041;-80
2021/05/16 02:30:09;;;;;;;13.38;1.50;;;10.20;93.50;;;;;;4978695;28;20039;-80
2021/05/16 02:32:36;;;;;;;8.57;2.22;;;10.20;93.40;;;;;;4998901;28;20081;-80
2021/05/16 02:35:01;;;;;;;10.88;2.10;;;10.10;93.50;;;;;;4964239;28;20470;-80
2021/05/16 02:37:27;;;;;;;6.07;1.10;;;10.20;93.40;;;;;;4968369;28;20130;-80
2021/05/16 02:39:52;;;;;;;9.02;1.52;;;10.10;93.40;;;;;;4979864;28;20034;-80
2021/05/16 02:42:18;;;;;;;10.25;1.85;;;10.10;93.40;;;;;;4997238;28;20025;-80
2021/05/16 02:44:43;;;;;;;4.78;1.08;;;10.10;93.40;;;;;;4978861;28;20080;-80
2021/05/16 02:47:09;;;;;;;15.40;2.40;;;10.00;93.40;;;;;;4994492;28;20486;-80
2021/05/16 02:49:35;;;;;;;8.65;1.67;;;10.00;93.40;;;;;;4992851;28;20030;-80
2021/05/16 02:52:00;;;;;;;13.20;1.02;;;10.00;93.30;;;;;;5000552;28;20041;-80
2021/05/16 02:54:26;;;;;;;11.70;1.30;;;10.00;93.40;;;;;;4979540;28;20042;-80
2021/05/16 02:56:51;;;;;;;9.43;2.03;;;10.00;93.30;;;;;;4961647;28;20073;-80
2021/05/16 02:59:17;;;;;;;8.80;1.40;;;10.10;93.30;;;;;;4983460;28;20064;-80
2021/05/16 03:01:43;;;;;;;4.63;1.80;;;10.10;93.20;;;;;;4994235;28;20144;-80
2021/05/16 03:04:08;;;;;;;7.15;1.23;;;10.10;93.30;;;;;;4977765;28;20041;-80
2021/05/16 03:06:34;;;;;;;12.00;2.30;;;10.10;93.30;;;;;;4991095;28;20569;-80
2021/05/16 03:09:00;;;;;;;8.10;1.63;;;10.00;93.30;;;;;;4972807;28;20038;-80
2021/05/16 03:11:26;;;;;;;8.13;2.05;;;10.00;93.20;;;;;;4985801;28;20032;-80
2021/05/16 03:13:51;;;;;;;8.15;1.80;;;10.10;93.20;;;;;;4979443;28;20028;-79
2021/05/16 03:16:17;;;;;;;6.40;1.38;;;10.10;93.20;;;;;;4978801;28;20122;-80
2021/05/16 03:18:42;;;;;;;20.05;2.90;;;10.00;93.20;;;;;;4978183;28;20489;-80
2021/05/16 03:21:08;;;;;;;15.20;2.45;;;10.10;93.20;;;;;;4977787;28;20118;-80
2021/05/16 03:23:33;;;;;;;14.02;1.77;;;10.10;93.10;;;;;;4965225;28;20068;-80
2021/05/16 03:26:01;;;;;;;11.98;1.98;;;10.10;93.10;;;;;;4996091;28;20031;-80
2021/05/16 03:28:28;;;;;;;11.45;2.15;;;10.00;93.40;;;;;;4970254;28;20169;-80
2021/05/16 03:30:53;;;;;;;9.07;1.58;;;10.00;93.10;;;;;;4964329;28;20068;-80
2021/05/16 03:33:19;;;;;;;5.50;1.10;;;10.10;93.10;;;;;;4978279;28;20530;-80
2021/05/16 03:35:44;;;;;;;10.65;1.60;;;10.00;93.20;;;;;;4993906;28;20034;-80
2021/05/16 03:38:10;;;;;;;7.13;1.08;;;10.00;93.20;;;;;;4994689;28;20018;-80
2021/05/16 03:40:35;;;;;;;11.75;1.77;;;10.00;93.20;;;;;;4978212;28;20455;-80
2021/05/16 03:43:01;;;;;;;10.10;1.60;;;10.00;93.20;;;;;;4956900;28;20371;-80
2021/05/16 03:45:27;;;;;;;9.68;1.50;;;10.00;93.20;;;;;;4981760;28;20039;-80
2021/05/16 03:47:52;;;;;;;8.75;1.77;;;10.00;93.20;;;;;;4997722;28;20026;-80
2021/05/16 03:50:18;;;;;;;3.53;1.40;;;10.00;93.20;;;;;;4965034;28;20034;-80
2021/05/16 03:52:43;;;;;;;13.35;2.35;;;10.00;93.10;;;;;;4997274;28;20084;-80
2021/05/16 03:55:10;;;;;;;11.70;1.50;;;9.90;93.60;;;;;;4992219;28;20406;-80
2021/05/16 03:57:36;;;;;;;10.48;1.98;;;9.90;93.80;;;;;;4978979;28;20080;-79
2021/05/16 04:00:02;;;;;;;7.50;1.33;;;9.90;93.80;;;;;;4998443;28;20465;-80
2021/05/16 04:02:28;;;;;;;7.90;1.67;;;9.90;93.70;;;;;;4979260;28;20048;-80
2021/05/16 04:04:54;;;;;;;10.00;1.88;;;10.00;93.20;;;;;;4966531;28;20038;-80
2021/05/16 04:07:20;;;;;;;12.00;2.00;;;9.90;93.60;;;;;;4993790;28;20424;-80
2021/05/16 04:09:45;;;;;;;7.75;1.92;;;9.80;93.70;;;;;;4984088;28;20556;-80
2021/05/16 04:12:11;;;;;;;8.93;2.00;;;9.90;93.80;;;;;;4994068;28;20037;-80
2021/05/16 04:14:36;;;;;;;9.57;2.00;;;9.80;93.80;;;;;;4985558;28;20060;-80
2021/05/16 04:17:02;;;;;;;14.50;1.70;;;9.80;93.90;;;;;;4965702;28;20029;-80
2021/05/16 04:19:27;;;;;;;11.90;2.00;;;9.80;93.90;;;;;;4987312;28;20128;-80
2021/05/16 04:21:53;;;;;;;12.90;2.22;;;9.90;93.80;;;;;;4970324;28;20099;-80
2021/05/16 04:24:18;;;;;;;14.60;3.13;;;9.90;93.90;;;;;;4972176;28;20454;-80
2021/05/16 04:26:44;;;;;;;16.38;2.03;;;9.90;93.80;;;;;;4293147;28;10000364;-80
2021/05/16 04:29:10;;;;;;;8.85;1.90;;;9.90;93.90;;;;;;4967371;28;20049;-80
2021/05/16 04:31:35;;;;;;;10.35;1.70;;;9.90;93.80;;;;;;4992847;28;20409;-80
2021/05/16 04:34:01;;;;;;;5.85;1.25;;;9.90;93.80;;;;;;4995415;28;20062;-80
2021/05/16 04:36:26;;;;;;;12.10;1.17;;;9.90;93.90;;;;;;4999468;28;20485;-80
2021/05/16 04:38:52;;;;;;;9.48;1.83;;;10.00;93.40;;;;;;4986701;28;20157;-79
2021/05/16 04:41:18;;;;;;;10.02;2.55;;;10.00;93.30;;;;;;4982497;28;20617;-80
2021/05/16 04:43:44;;;;;;;4.05;1.40;;;10.00;93.30;;;;;;4986054;28;20038;-80
2021/05/16 04:46:09;;;;;;;10.65;1.65;;;10.00;93.20;;;;;;4997999;28;20487;-80
2021/05/16 04:48:35;;;;;;;12.60;2.97;;;10.10;93.10;;;;;;4996245;28;20041;-80
2021/05/16 04:51:01;;;;;;;9.43;2.17;;;10.10;93.20;;;;;;4999614;28;20096;-80
2021/05/16 04:53:29;;;;;;;6.68;2.55;;;10.10;93.40;;;;;;4985110;28;20035;-80
2021/05/16 04:55:55;;;;;;;3.08;1.25;;;10.20;93.20;;;;;;4978770;28;20030;-80
2021/05/16 04:58:21;;;;;;;7.88;2.33;;;10.20;93.20;;;;;;5001562;28;20062;-80
2021/05/16 05:00:46;;;;;;;4.55;1.60;;;10.20;93.10;;;;;;4980398;28;20061;-80
2021/05/16 05:03:12;;;;;;;10.45;1.60;;;10.20;93.00;;;;;;4975008;28;20566;-80
2021/05/16 05:05:37;;;;;;;5.00;1.70;;;10.30;93.00;;;;;;4989860;28;20137;-80
2021/05/16 05:08:03;;;;;;;11.35;1.67;;;10.30;93.00;;;;;;4968333;28;20708;-80
2021/05/16 05:10:28;;;;;;;8.57;2.17;;;10.30;93.00;;;;;;4988132;28;20038;-80
2021/05/16 05:12:54;;;;;;;8.38;1.85;;;10.30;93.00;;;;;;4985908;28;20030;-80
2021/05/16 05:15:19;;;;;;;7.50;1.77;;;10.40;93.00;;;;;;4986783;28;20031;-80
2021/05/16 05:17:45;;;;;;;9.60;2.30;;;10.40;93.00;;;;;;4981999;28;20031;-80
2021/05/16 05:20:11;;;;;;;10.18;1.60;;;10.50;93.00;;;;;;4998735;28;20363;-80
2021/05/16 05:22:36;;;;;;;8.63;2.28;;;10.50;93.00;;;;;;4968976;28;20042;-80
2021/05/16 05:25:02;;;;;;;5.75;1.98;;;10.60;92.90;;;;;;4980524;28;20022;-80
2021/05/16 05:27:28;;;;;;;6.07;1.38;;;10.60;93.00;;;;;;4975272;28;20029;-80
2021/05/16 05:29:53;;;;;;;7.00;1.35;;;10.60;92.70;;;;;;4978399;28;20113;-80
2021/05/16 05:32:19;;;;;;;7.03;1.90;;;10.60;92.60;;;;;;4969959;28;20046;-80
2021/05/16 05:34:44;;;;;;;5.65;2.25;;;10.70;92.80;;;;;;4969288;28;20092;-80
2021/05/16 05:37:10;;;;;;;5.07;1.75;;;10.70;92.60;;;;;;4978869;28;20034;-80
2021/05/16 05:39:35;;;;;;;6.85;2.35;;;10.70;92.60;;;;;;4962341;28;20064;-80
2021/05/16 05:42:01;;;;;;;4.85;1.00;;;10.80;92.60;;;;;;4995880;28;20054;-80
2021/05/16 05:44:27;;;;;;;5.55;2.22;;;10.90;92.50;;;;;;4966467;28;20031;-80
2021/05/16 05:46:53;;;;;;;7.68;1.92;;;10.90;92.50;;;;;;4965949;28;20052;-80
2021/05/16 05:49:18;;;;;;;6.97;1.73;;;11.10;92.50;;;;;;4980496;28;20034;-80
2021/05/16 05:51:46;;;;;;;7.72;1.85;;;11.20;92.60;;;;;;4996136;28;20438;-80
2021/05/16 05:54:12;;;;;;;10.23;2.70;;;11.10;92.20;;;;;;4978049;28;20045;-80
2021/05/16 05:56:37;;;;;;;9.10;2.42;;;11.10;92.40;;;;;;4979238;28;20030;-80
2021/05/16 05:59:03;;;;;;;8.68;2.42;;;11.20;92.80;;;;;;4981433;28;20086;-80
2021/05/16 06:01:29;;;;;;;10.95;2.65;;;11.30;92.50;;;;;;4972777;28;20037;-80
2021/05/16 06:03:54;;;;;;;8.18;1.73;;;11.40;92.20;;;;;;4995228;28;20030;-80
2021/05/16 06:06:20;;;;;;;8.90;1.88;;;11.40;92.10;;;;;;4978114;28;20509;-80
2021/05/16 06:08:45;;;;;;;9.57;2.55;;;11.50;92.10;;;;;;4982025;28;20125;-80
2021/05/16 06:11:11;;;;;;;9.90;2.33;;;11.40;92.20;;;;;;4954338;28;20038;-80
2021/05/16 06:13:36;;;;;;;9.30;2.33;;;11.50;91.90;;;;;;4991666;28;20034;-80
2021/05/16 06:16:02;;;;;;;8.10;2.05;;;11.60;91.70;;;;;;4993948;28;20050;-80
2021/05/16 06:18:27;;;;;;;7.85;1.55;;;11.80;91.80;;;;;;4979752;28;20465;-80
2021/05/16 06:20:53;;;;;;;6.97;1.77;;;11.80;91.80;;;;;;4976594;28;20031;-80
2021/05/16 06:23:19;;;;;;;12.25;2.50;;;11.80;91.80;;;;;;4997020;28;20113;-80
2021/05/16 06:25:46;;;;;;;9.10;2.58;;;12.10;92.00;;;;;;4978897;28;20409;-80
2021/05/16 06:28:11;;;;;;;12.75;2.60;;;12.20;91.90;;;;;;4999275;28;20030;-80
2021/05/16 06:30:38;;;;;;;7.88;1.75;;;12.40;91.50;;;;;;4980510;28;20045;-81
2021/05/16 06:33:03;;;;;;;16.27;2.45;;;12.60;91.70;;;;;;4979884;28;20041;-80
2021/05/16 06:35:29;;;;;;;11.90;2.28;;;12.60;91.30;;;;;;4969941;28;20034;-81
2021/05/16 06:37:54;;;;;;;10.10;1.90;;;12.40;91.00;;;;;;4964715;28;20503;-80
2021/05/16 06:40:20;;;;;;;9.60;2.25;;;12.30;91.20;;;;;;4973678;28;20027;-81
2021/05/16 06:42:46;;;;;;;8.95;2.22;;;12.30;90.90;;;;;;4968254;28;20373;-80
2021/05/16 06:45:12;;;;;;;12.63;1.88;;;12.60;91.00;;;;;;4979486;28;20040;-80
2021/05/16 06:47:37;;;;;;;11.95;2.05;;;12.80;91.00;;;;;;4977308;28;20559;-80
2021/05/16 06:50:04;;;;;;;6.82;2.05;;;12.90;90.70;;;;;;4994644;28;20129;-80
2021/05/16 06:52:30;;;;;;;17.02;3.78;;;13.00;91.00;;;;;;4962395;28;20045;-81
2021/05/16 06:54:56;;;;;;;8.75;2.22;;;12.70;90.60;;;;;;4997073;28;20048;-80
2021/05/16 06:57:21;;;;;;;8.02;1.63;;;12.50;90.70;;;;;;4996630;28;20057;-80
2021/05/16 06:59:47;;;;;;;5.25;1.77;;;12.60;90.70;;;;;;4964217;28;20265;-80
2021/05/16 07:02:12;;;;;;;13.48;2.53;;;12.70;90.70;;;;;;4974914;28;20034;-80
2021/05/16 07:04:38;;;;;;;11.40;2.40;;;12.80;90.80;;;;;;4974479;28;20029;-80
2021/05/16 07:07:03;;;;;;;12.60;2.83;;;12.70;90.50;;;;;;4981266;28;20110;-80
2021/05/16 07:09:29;;;;;;;11.80;2.40;;;12.90;91.10;;;;;;4967714;28;20041;-81
2021/05/16 07:11:54;;;;;;;5.40;1.48;;;13.10;90.90;;;;;;4976051;28;20042;-80
2021/05/16 07:14:20;;;;;;;7.05;2.80;;;12.70;90.50;;;;;;4970030;28;20025;-81
2021/05/16 07:16:45;;;;;;;8.82;2.00;;;12.70;90.70;;;;;;4966253;28;20037;-80
2021/05/16 07:19:11;;;;;;;16.83;3.15;;;12.70;90.70;;;;;;4995628;28;20036;-81
2021/05/16 07:21:36;;;;;;;15.68;2.60;;;12.90;90.80;;;;;;4964914;28;20044;-81
2021/05/16 07:24:02;;;;;;;8.93;1.88;;;13.10;90.40;;;;;;4978168;28;20152;-79
2021/05/16 07:26:28;;;;;;;9.70;2.00;;;13.00;90.20;;;;;;4965170;28;20053;-81
2021/05/16 07:28:53;;;;;;;8.63;2.22;;;12.90;90.50;;;;;;4964072;28;20030;-80
2021/05/16 07:31:19;;;;;;;9.35;2.72;;;12.90;90.40;;;;;;4994092;28;20076;-80
2021/05/16 07:33:44;;;;;;;15.45;2.92;;;12.90;90.50;;;;;;4979889;28;20425;-80
2021/05/16 07:36:10;;;;;;;11.25;2.55;;;13.40;90.60;;;;;;4995007;28;20026;-81
2021/05/16 07:38:36;;;;;;;13.68;3.45;;;13.50;89.60;;;;;;4976446;28;20038;-81
2021/05/16 07:41:01;;;;;;;10.57;2.95;;;13.90;90.10;;;;;;4977232;28;20393;-81
2021/05/16 07:43:27;;;;;;;6.93;1.92;;;13.70;89.10;;;;;;4998139;28;20425;-81
2021/05/16 07:45:53;;;;;;;16.20;2.33;;;13.50;89.30;;;;;;4966486;28;20059;-81
2021/05/16 07:48:18;;;;;;;11.85;2.53;;;13.30;89.60;;;;;;4987026;28;20022;-81
2021/05/16 07:50:44;;;;;;;17.10;2.80;;;13.40;90.10;;;;;;4984737;28;20045;-81
2021/05/16 07:53:11;;;;;;;9.93;1.95;;;13.50;89.50;;;;;;4965264;28;20054;-80
2021/05/16 07:55:41;;;;;;;4.38;0.95;;;13.20;89.80;;;;;;4969196;28;20026;-81
2021/05/16 07:58:06;;;;;;;15.60;3.60;;;13.00;90.00;;;;;;4984196;28;20053;-80
2021/05/16 08:00:32;;;;;;;9.25;2.42;;;13.30;90.20;;;;;;4987210;28;20072;-81
2021/05/16 08:02:58;;;;;;;7.43;1.88;;;13.40;90.00;;;;;;4987393;28;20061;-81
2021/05/16 08:05:23;;;;;;;8.82;2.50;;;13.40;89.70;;;;;;4999197;28;20045;-81
2021/05/16 08:07:49;;;;;;;12.23;2.72;;;13.40;90.00;;;;;;4966163;28;20038;-81
2021/05/16 08:10:19;;;;;;;8.75;2.28;;;13.40;90.10;;;;;;4982871;28;20065;-81
2021/05/16 08:12:45;;;;;;;16.48;2.72;;;13.40;89.70;;;;;;4979963;28;20049;-81
2021/05/16 08:15:11;;;;;;;11.07;3.05;;;13.70;90.20;;;;;;4997275;28;20026;-81
2021/05/16 08:17:36;;;;;;;10.27;2.20;;;13.80;89.20;;;;;;4963590;28;20113;-80
2021/05/16 08:20:04;;;;;;;17.25;2.60;;;13.80;88.90;;;;;;4997917;28;20036;-80
2021/05/16 08:22:29;;;;;;;4.30;1.88;;;13.80;88.80;;;;;;4964076;28;20054;-81
2021/05/16 08:24:55;;;;;;;12.60;2.78;;;13.70;88.40;;;;;;4980789;28;20064;-81
2021/05/16 08:27:20;;;;;;;12.75;4.20;;;14.00;89.50;;;;;;4970628;28;20019;-81
2021/05/16 08:29:46;;;;;;;12.55;3.60;;;14.70;88.60;;;;;;4982209;28;20030;-80
2021/05/16 08:32:13;;;;;;;12.25;2.60;;;14.80;87.80;;;;;;4976193;28;20461;-81
2021/05/16 08:34:38;;;;;;;9.65;2.65;;;14.90;87.40;;;;;;4964956;28;20413;-81
2021/05/16 08:37:07;;;;;;;15.10;4.10;;;14.60;87.70;;;;;;4998924;28;20037;-81
2021/05/16 08:39:32;;;;;;;8.77;2.45;;;14.60;88.60;;;;;;4968164;28;20482;-81
2021/05/16 08:41:58;;;;;;;2.45;1.63;;;14.20;89.10;;;;;;4963892;28;20038;-81
2021/05/16 08:44:24;;;;;;;10.15;2.35;;;14.30;89.30;;;;;;4967096;28;20105;-81
2021/05/16 08:46:49;;;;;;;12.70;2.42;;;14.30;90.40;;;;;;4982459;28;20034;-82
2021/05/16 08:49:15;;;;;;;9.07;1.70;;;14.60;90.60;;;;;;4980945;28;20054;-82
2021/05/16 08:51:44;;;;;;;13.50;2.65;;;14.40;89.70;;;;;;4981982;28;20064;-81
2021/05/16 08:54:10;;;;;;;14.10;2.70;;;14.30;90.20;;;;;;4975946;28;20037;-81
2021/05/16 08:56:35;;;;;;;8.10;2.20;;;14.00;90.10;;;;;;4996055;28;20034;-81
2021/05/16 08:59:08;;;;;;;11.60;3.00;;;14.20;90.20;;;;;;4965158;28;20037;-81
2021/05/16 09:01:38;;;;;;;4.95;1.77;;;14.00;89.70;;;;;;4985311;28;20088;-81
2021/05/16 09:04:20;;;;;;;5.15;1.30;;;13.90;90.20;;;;;;4987333;28;20585;-81
2021/05/16 09:06:45;;;;;;;9.43;3.38;;;13.90;90.40;;;;;;4982930;28;20880;-80
2021/05/16 09:09:31;;;;;;;9.00;2.55;;;13.80;90.30;;;;;;4980954;28;20060;-80
2021/05/16 09:12:15;;;;;;;13.75;4.43;;;14.00;90.10;;;;;;4998894;28;20143;-81
2021/05/16 09:14:41;;;;;;;10.73;2.20;;;13.90;90.40;;;;;;4966508;28;20044;-80
2021/05/16 09:17:29;;;;;;;10.23;2.88;;;14.00;90.40;;;;;;4998590;28;20117;-80
2021/05/16 09:19:58;;;;;;;4.78;1.55;;;14.00;90.30;;;;;;4999430;28;20258;-81
2021/05/16 09:22:29;;;;;;;10.50;2.33;;;13.90;90.30;;;;;;4988543;28;20050;-81
2021/05/16 09:25:13;;;;;;;4.70;1.67;;;13.90;90.70;;;;;;4988360;28;20104;-80
2021/05/16 09:27:39;;;;;;;9.25;2.55;;;13.70;91.20;;;;;;5001826;28;20065;-80
2021/05/16 09:30:17;;;;;;;9.45;3.03;;;14.00;91.00;;;;;;4971017;28;20046;-81
2021/05/16 09:32:57;;;;;;;9.00;1.90;;;14.10;91.10;;;;;;5005764;28;20064;-80
2021/05/16 09:35:34;;;;;;;7.78;2.00;;;14.20;91.00;;;;;;5005029;28;20084;-80
2021/05/16 09:38:02;;;;;;;10.68;2.88;;;14.40;91.10;;;;;;4983363;28;20382;-80
2021/05/16 09:40:29;;;;;;;7.15;2.35;;;14.60;91.40;;;;;;4999631;28;21575;-81
2021/05/16 09:43:17;;;;;;;8.48;1.98;;;14.90;91.70;;;;;;4996663;28;20089;-80
2021/05/16 09:46:05;;;;;;;7.15;2.53;;;15.50;91.90;;;;;;5004779;28;20105;-81
2021/05/16 09:48:33;;;;;;;4.07;1.63;;;16.00;90.60;;;;;;4970568;28;20519;-81
2021/05/16 09:51:15;;;;;;;12.70;1.92;;;15.80;87.70;;;;;;4985898;28;20043;-81
2021/05/16 09:54:06;;;;;;;7.55;1.58;;;15.60;86.60;;;;;;4998092;28;20088;-81
2021/05/16 09:56:42;;;;;;;6.85;1.95;;;15.80;87.40;;;;;;4976035;28;20105;-81
2021/05/16 09:59:08;;;;;;;8.45;1.58;;;16.00;86.50;;;;;;5000039;28;20065;-81
2021/05/16 10:01:34;;;;;;;9.40;1.50;;;16.00;86.30;;;;;;4979873;28;20038;-81
2021/05/16 10:04:01;;;;;;;10.27;2.47;;;16.00;85.80;;;;;;4977507;28;20131;-80
2021/05/16 10:06:27;;;;;;;7.85;2.03;;;16.30;87.60;;;;;;4974181;28;20093;-79
2021/05/16 10:08:53;;;;;;;10.50;2.38;;;16.50;90.20;;;;;;4964697;28;20042;-79
2021/05/16 10:11:24;;;;;;;4.45;1.42;;;16.50;86.80;;;;;;4969947;28;20097;-80
2021/05/16 10:14:11;;;;;;;10.02;1.92;;;16.30;85.00;;;;;;4981113;28;20031;-79
2021/05/16 10:16:41;;;;;;;6.40;1.63;;;16.00;86.10;;;;;;4965301;28;20062;-80
2021/05/16 10:19:09;;;;;;;1.17;0.63;;;15.60;85.50;;;;;;4982148;28;20588;-79
2021/05/16 10:21:35;;;;;;;2.25;1.30;;;15.60;86.30;;;;;;4981637;28;20529;-79
2021/05/16 10:24:28;;;;;;;5.30;1.50;;;15.70;86.00;;;;;;4977018;28;20170;-79
2021/05/16 10:27:13;;;;;;;4.00;1.10;;;15.90;86.60;;;;;;4982661;28;20041;-79
2021/05/16 10:29:55;;;;;;;5.63;1.10;;;16.00;84.20;;;;;;4980810;28;20022;-79
2021/05/16 10:32:22;;;;;;;3.15;0.80;;;16.70;86.00;;;;;;4968024;28;20272;-79
2021/05/16 10:35:00;;;;;;;5.13;0.90;;;16.80;82.30;;;;;;4964674;28;20035;-79
2021/05/16 10:37:43;;;;;;;3.25;0.77;;;17.00;81.90;;;;;;4982907;28;20038;-79
2021/05/16 10:40:29;;;;;;;5.88;1.20;;;17.60;79.40;;;;;;4987454;28;20038;-79
2021/05/16 10:43:00;;;;;;;2.28;0.85;;;17.70;79.80;;;;;;4997413;28;20038;-80
2021/05/16 10:45:34;;;;;;;3.05;0.98;;;17.70;77.80;;;;;;4980494;28;20046;-79
2021/05/16 10:48:08;;;;;;;6.30;1.02;;;17.60;74.80;;;;;;4981852;28;20338;-79
2021/05/16 10:50:35;;;;;;;5.55;0.75;;;17.30;76.80;;;;;;4994134;28;20106;-79
2021/05/16 10:53:02;;;;;;;6.63;1.00;;;17.00;75.40;;;;;;4995294;28;20026;-78
2021/05/16 10:55:30;;;;;;;3.58;0.60;;;16.80;78.20;;;;;;4970975;28;20027;-79
2021/05/16 10:57:55;;;;;;;3.53;0.45;;;16.40;79.80;;;;;;4981153;28;20077;-80
2021/05/16 11:00:21;;;;;;;4.90;0.85;;;16.30;81.70;;;;;;4983985;28;20477;-80
2021/05/16 11:03:04;;;;;;;6.25;1.08;;;16.20;82.60;;;;;;4995068;28;20107;-80
2021/05/16 11:05:47;;;;;;;6.10;0.98;;;16.20;83.80;;;;;;4641351;28;10000294;-80
2021/05/16 11:08:18;;;;;;;2.53;0.57;;;16.20;84.90;;;;;;4990746;28;20104;-80
2021/05/16 11:10:44;;;;;;;4.25;0.70;;;16.40;85.60;;;;;;4990664;28;20038;-80
2021/05/16 11:13:14;;;;;;;6.38;0.93;;;16.60;85.10;;;;;;4977790;28;20514;-80
2021/05/16 11:15:50;;;;;;;5.97;1.13;;;16.80;84.00;;;;;;4973456;28;20629;-80
2021/05/16 11:18:19;;;;;;;4.90;0.88;;;17.10;84.60;;;;;;4992648;28;20117;-80
2021/05/16 11:20:50;;;;;;;5.28;2.25;;;17.40;84.40;;;;;;4979699;28;20269;-80
2021/05/16 11:23:34;;;;;;;2.15;1.23;;;17.80;85.10;;;;;;4950735;28;20606;-80
2021/05/16 11:26:01;;;;;;;2.85;1.02;;;18.20;83.20;;;;;;4975170;28;20065;-80
2021/05/16 11:28:28;;;;;;;2.80;1.00;;;18.40;81.50;;;;;;4979306;28;20116;-80
2021/05/16 11:30:55;;;;;;;2.55;0.68;;;18.70;83.10;;;;;;4989689;28;20034;-81
2021/05/16 11:33:28;;;;;;;3.20;1.05;;;18.80;82.70;;;;;;4976123;28;20121;-81
2021/05/16 11:35:53;;;;;;;5.47;1.50;;;18.80;82.00;;;;;;4992847;28;20049;-80
2021/05/16 11:38:25;;;;;;;4.40;0.90;;;19.20;84.00;;;;;;4976880;28;20518;-80
2021/05/16 11:40:51;;;;;;;1.52;0.80;;;19.30;80.90;;;;;;4977867;28;20497;-80
2021/05/16 11:43:16;;;;;;;2.20;0.80;;;19.50;79.60;;;;;;4977899;28;20437;-80
2021/05/16 11:45:42;;;;;;;2.45;0.85;;;19.80;78.30;;;;;;4985622;28;20037;-80
2021/05/16 11:48:30;;;;;;;6.28;1.52;;;20.10;77.40;;;;;;4980399;28;20037;-79
2021/05/16 11:51:05;;;;;;;2.28;0.98;;;20.00;76.60;;;;;;4962493;28;20508;-80
2021/05/16 11:53:30;;;;;;;5.50;1.27;;;20.30;76.30;;;;;;4994488;28;20096;-80
2021/05/16 11:56:01;;;;;;;4.50;0.88;;;20.60;78.40;;;;;;5000412;28;20455;-79
2021/05/16 11:58:26;;;;;;;4.55;1.00;;;20.90;73.80;;;;;;4995757;28;20026;-80
2021/05/16 12:00:52;;;;;;;5.47;1.38;;;21.60;71.60;;;;;;4976307;28;20046;-80
2021/05/16 12:03:18;;;;;;;5.57;1.50;;;21.60;76.40;;;;;;4994593;28;20026;-79
2021/05/16 12:05:44;;;;;;;5.47;1.00;;;21.80;79.90;;;;;;4992879;28;20035;-79
2021/05/16 12:08:17;;;;;;;5.82;1.08;;;21.80;75.90;;;;;;4983767;28;20100;-79
2021/05/16 12:10:43;;;;;;;4.80;1.02;;;21.90;75.80;;;;;;4985431;28;20065;-78
2021/05/16 12:13:24;;;;;;;7.05;2.95;;;21.90;75.60;;;;;;4953835;28;20034;-78
2021/05/16 12:15:50;;;;;;;11.80;0.68;;;22.20;78.60;;;;;;4956694;28;20033;-78
2021/05/16 12:18:23;;;;;;;4.80;1.30;;;22.10;72.50;;;;;;4981624;28;20037;-78
2021/05/16 12:21:01;;;;;;;4.78;1.45;;;22.10;75.00;;;;;;4980543;28;20033;-78
2021/05/16 12:23:27;;;;;;;2.97;1.25;;;22.00;73.70;;;;;;4967633;28;20030;-78
2021/05/16 12:25:53;;;;;;;4.13;1.00;;;21.80;71.60;;;;;;4978888;28;20037;-78
2021/05/16 12:28:18;;;;;;;5.03;1.27;;;21.90;69.70;;;;;;4982219;28;20474;-78
2021/05/16 12:30:44;;;;;;;2.80;1.02;;;22.00;73.30;;;;;;4969442;28;20026;-78
2021/05/16 12:33:10;;;;;;;8.25;1.73;;;22.00;73.20;;;;;;4995605;28;20125;-77
2021/05/16 12:35:35;;;;;;;5.25;1.30;;;21.70;71.10;;;;;;4985796;28;20113;-78
2021/05/16 12:38:12;;;;;;;2.03;1.10;;;21.60;72.90;;;;;;4981181;28;20105;-79
2021/05/16 12:40:38;;;;;;;5.13;1.50;;;21.60;72.20;;;;;;5000440;28;20121;-77
2021/05/16 12:43:05;;;;;;;3.17;0.90;;;21.50;75.30;;;;;;4992930;28;20286;-78
2021/05/16 12:45:31;;;;;;;5.75;1.40;;;21.40;69.90;;;;;;4965978;28;20369;-78